sensor_id;sensor_type;location;lat;lon;timestamp;temperature;humidity
21891;DHT22;11110;52.386;16.940;2023-12-07T00:01:14;15.70;39.50
21891;DHT22;11110;52.386;16.940;2023-12-07T00:03:45;15.70;39.50
21891;DHT22;11110;52.386;16.940;2023-12-07T00:06:13;15.60;39.50
21891;DHT22;11110;52.386;16.940;2023-12-07T00:08:42;15.60;39.50
21891;DHT22;11110;52.386;16.940;2023-12-07T00:11:10;15.60;39.60
21891;DHT22;11110;52.386;16.940;2023-12-07T00:13:38;15.50;39.60
21891;DHT22;11110;52.386;16.940;2023-12-07T00:16:07;15.50;40.40
21891;DHT22;11110;52.386;16.940;2023-12-07T00:18:36;15.50;39.80
21891;DHT22;11110;52.386;16.940;2023-12-07T00:21:07;15.50;39.80
21891;DHT22;11110;52.386;16.940;2023-12-07T00:23:36;15.50;40.00
21891;DHT22;11110;52.386;16.940;2023-12-07T00:26:05;15.60;40.00
21891;DHT22;11110;52.386;16.940;2023-12-07T00:28:34;15.60;40.00
21891;DHT22;11110;52.386;16.940;2023-12-07T00:31:03;15.60;40.00
21891;DHT22;11110;52.386;16.940;2023-12-07T00:33:31;15.60;39.90
21891;DHT22;11110;52.386;16.940;2023-12-07T00:36:00;15.60;40.60
21891;DHT22;11110;52.386;16.940;2023-12-07T00:38:30;15.70;40.00
21891;DHT22;11110;52.386;16.940;2023-12-07T00:40:59;15.60;39.90
21891;DHT22;11110;52.386;16.940;2023-12-07T00:43:28;15.70;40.00
21891;DHT22;11110;52.386;16.940;2023-12-07T00:45:57;15.70;39.90
21891;DHT22;11110;52.386;16.940;2023-12-07T00:48:26;15.70;40.00
21891;DHT22;11110;52.386;16.940;2023-12-07T00:50:54;15.70;39.90
21891;DHT22;11110;52.386;16.940;2023-12-07T00:53:23;15.70;40.00
21891;DHT22;11110;52.386;16.940;2023-12-07T00:55:53;15.70;39.90
21891;DHT22;11110;52.386;16.940;2023-12-07T00:58:21;15.70;39.90
21891;DHT22;11110;52.386;16.940;2023-12-07T01:00:50;15.70;39.80
21891;DHT22;11110;52.386;16.940;2023-12-07T01:03:19;15.70;39.80
21891;DHT22;11110;52.386;16.940;2023-12-07T01:05:48;15.70;39.90
21891;DHT22;11110;52.386;16.940;2023-12-07T01:08:17;15.70;39.80
21891;DHT22;11110;52.386;16.940;2023-12-07T01:10:45;15.70;39.80
21891;DHT22;11110;52.386;16.940;2023-12-07T01:13:15;15.70;39.90
21891;DHT22;11110;52.386;16.940;2023-12-07T01:15:43;15.70;39.90
21891;DHT22;11110;52.386;16.940;2023-12-07T01:18:12;15.70;39.90
21891;DHT22;11110;52.386;16.940;2023-12-07T01:20:41;15.70;39.80
21891;DHT22;11110;52.386;16.940;2023-12-07T01:23:09;15.70;39.80
21891;DHT22;11110;52.386;16.940;2023-12-07T01:25:42;15.70;39.80
21891;DHT22;11110;52.386;16.940;2023-12-07T01:28:10;15.70;39.80
21891;DHT22;11110;52.386;16.940;2023-12-07T01:30:40;15.80;39.80
21891;DHT22;11110;52.386;16.940;2023-12-07T01:33:09;15.80;39.80
21891;DHT22;11110;52.386;16.940;2023-12-07T01:35:38;15.80;39.80
21891;DHT22;11110;52.386;16.940;2023-12-07T01:38:06;15.70;39.70
21891;DHT22;11110;52.386;16.940;2023-12-07T01:40:35;15.70;39.70
21891;DHT22;11110;52.386;16.940;2023-12-07T01:43:04;15.70;39.80
21891;DHT22;11110;52.386;16.940;2023-12-07T01:45:32;15.70;39.90
21891;DHT22;11110;52.386;16.940;2023-12-07T01:48:02;15.70;39.80
21891;DHT22;11110;52.386;16.940;2023-12-07T01:50:31;15.70;39.70
21891;DHT22;11110;52.386;16.940;2023-12-07T01:53:01;15.70;39.70
21891;DHT22;11110;52.386;16.940;2023-12-07T01:55:34;15.70;39.80
21891;DHT22;11110;52.386;16.940;2023-12-07T01:58:02;15.70;39.80
21891;DHT22;11110;52.386;16.940;2023-12-07T02:00:33;15.70;39.70
21891;DHT22;11110;52.386;16.940;2023-12-07T02:03:05;15.80;39.80
21891;DHT22;11110;52.386;16.940;2023-12-07T02:05:35;15.70;39.70
21891;DHT22;11110;52.386;16.940;2023-12-07T02:08:05;15.70;39.70
21891;DHT22;11110;52.386;16.940;2023-12-07T02:10:34;15.70;39.60
21891;DHT22;11110;52.386;16.940;2023-12-07T02:13:03;15.70;39.70
21891;DHT22;11110;52.386;16.940;2023-12-07T02:15:32;15.70;39.70
21891;DHT22;11110;52.386;16.940;2023-12-07T02:18:06;15.70;39.70
21891;DHT22;11110;52.386;16.940;2023-12-07T02:20:44;15.70;39.70
21891;DHT22;11110;52.386;16.940;2023-12-07T02:23:17;15.70;39.80
21891;DHT22;11110;52.386;16.940;2023-12-07T02:26:07;15.70;39.80
21891;DHT22;11110;52.386;16.940;2023-12-07T02:28:38;15.60;39.90
21891;DHT22;11110;52.386;16.940;2023-12-07T02:31:07;15.70;40.00
21891;DHT22;11110;52.386;16.940;2023-12-07T02:33:35;15.80;40.00
21891;DHT22;11110;52.386;16.940;2023-12-07T02:36:05;15.80;40.00
21891;DHT22;11110;52.386;16.940;2023-12-07T02:38:34;15.80;39.80
21891;DHT22;11110;52.386;16.940;2023-12-07T02:41:04;15.80;39.80
21891;DHT22;11110;52.386;16.940;2023-12-07T02:43:34;15.90;39.70
21891;DHT22;11110;52.386;16.940;2023-12-07T02:46:04;15.80;39.60
21891;DHT22;11110;52.386;16.940;2023-12-07T02:48:33;15.90;39.60
21891;DHT22;11110;52.386;16.940;2023-12-07T02:51:01;15.90;39.60
21891;DHT22;11110;52.386;16.940;2023-12-07T02:53:30;15.90;39.60
21891;DHT22;11110;52.386;16.940;2023-12-07T02:55:58;15.80;39.60
21891;DHT22;11110;52.386;16.940;2023-12-07T02:58:28;15.70;39.50
21891;DHT22;11110;52.386;16.940;2023-12-07T03:00:56;15.70;39.60
21891;DHT22;11110;52.386;16.940;2023-12-07T03:03:27;15.70;39.70
21891;DHT22;11110;52.386;16.940;2023-12-07T03:05:56;15.70;39.70
21891;DHT22;11110;52.386;16.940;2023-12-07T03:08:25;15.70;39.60
21891;DHT22;11110;52.386;16.940;2023-12-07T03:10:55;15.70;39.70
21891;DHT22;11110;52.386;16.940;2023-12-07T03:13:24;15.70;39.60
21891;DHT22;11110;52.386;16.940;2023-12-07T03:15:52;15.80;39.70
21891;DHT22;11110;52.386;16.940;2023-12-07T03:18:21;15.70;39.70
21891;DHT22;11110;52.386;16.940;2023-12-07T03:20:51;15.70;39.70
21891;DHT22;11110;52.386;16.940;2023-12-07T03:23:20;15.80;39.70
21891;DHT22;11110;52.386;16.940;2023-12-07T03:25:48;15.80;39.70
21891;DHT22;11110;52.386;16.940;2023-12-07T03:28:17;15.80;39.70
21891;DHT22;11110;52.386;16.940;2023-12-07T03:30:45;15.80;39.70
21891;DHT22;11110;52.386;16.940;2023-12-07T03:33:14;15.80;40.40
21891;DHT22;11110;52.386;16.940;2023-12-07T03:35:42;15.80;39.60
21891;DHT22;11110;52.386;16.940;2023-12-07T03:38:12;15.80;39.70
21891;DHT22;11110;52.386;16.940;2023-12-07T03:40:41;15.80;39.70
21891;DHT22;11110;52.386;16.940;2023-12-07T03:43:10;15.80;39.70
21891;DHT22;11110;52.386;16.940;2023-12-07T03:45:38;15.80;39.70
21891;DHT22;11110;52.386;16.940;2023-12-07T03:48:07;15.80;39.60
21891;DHT22;11110;52.386;16.940;2023-12-07T03:50:35;15.80;39.70
21891;DHT22;11110;52.386;16.940;2023-12-07T03:53:04;15.80;39.70
21891;DHT22;11110;52.386;16.940;2023-12-07T03:55:34;15.90;39.70
21891;DHT22;11110;52.386;16.940;2023-12-07T03:58:02;15.90;39.60
21891;DHT22;11110;52.386;16.940;2023-12-07T04:00:32;15.90;40.30
21891;DHT22;11110;52.386;16.940;2023-12-07T04:03:01;15.90;39.60
21891;DHT22;11110;52.386;16.940;2023-12-07T04:05:29;15.90;39.50
21891;DHT22;11110;52.386;16.940;2023-12-07T04:07:58;15.90;39.50
21891;DHT22;11110;52.386;16.940;2023-12-07T04:10:27;16.00;39.50
21891;DHT22;11110;52.386;16.940;2023-12-07T04:12:57;16.00;39.50
21891;DHT22;11110;52.386;16.940;2023-12-07T04:15:25;16.00;39.40
21891;DHT22;11110;52.386;16.940;2023-12-07T04:17:54;16.00;39.30
21891;DHT22;11110;52.386;16.940;2023-12-07T04:20:23;16.00;39.30
21891;DHT22;11110;52.386;16.940;2023-12-07T04:22:52;16.00;39.40
21891;DHT22;11110;52.386;16.940;2023-12-07T04:25:20;16.00;39.30
21891;DHT22;11110;52.386;16.940;2023-12-07T04:27:50;16.00;39.30
21891;DHT22;11110;52.386;16.940;2023-12-07T04:30:20;16.00;39.40
21891;DHT22;11110;52.386;16.940;2023-12-07T04:32:49;16.10;39.30
21891;DHT22;11110;52.386;16.940;2023-12-07T04:35:17;16.00;39.30
21891;DHT22;11110;52.386;16.940;2023-12-07T04:37:46;16.00;39.90
21891;DHT22;11110;52.386;16.940;2023-12-07T04:40:14;16.00;39.40
21891;DHT22;11110;52.386;16.940;2023-12-07T04:42:43;16.00;39.30
21891;DHT22;11110;52.386;16.940;2023-12-07T04:45:11;16.00;39.30
21891;DHT22;11110;52.386;16.940;2023-12-07T04:47:41;16.00;39.40
21891;DHT22;11110;52.386;16.940;2023-12-07T04:50:10;16.00;39.50
21891;DHT22;11110;52.386;16.940;2023-12-07T04:52:38;15.90;39.60
21891;DHT22;11110;52.386;16.940;2023-12-07T04:55:06;15.90;39.60
21891;DHT22;11110;52.386;16.940;2023-12-07T04:57:36;16.00;39.60
21891;DHT22;11110;52.386;16.940;2023-12-07T05:00:05;15.90;39.60
21891;DHT22;11110;52.386;16.940;2023-12-07T05:02:35;16.00;39.60
21891;DHT22;11110;52.386;16.940;2023-12-07T05:05:06;16.00;39.50
21891;DHT22;11110;52.386;16.940;2023-12-07T05:07:36;16.00;39.60
21891;DHT22;11110;52.386;16.940;2023-12-07T05:10:05;16.00;39.60
21891;DHT22;11110;52.386;16.940;2023-12-07T05:12:34;16.10;39.60
21891;DHT22;11110;52.386;16.940;2023-12-07T05:15:03;16.00;39.60
21891;DHT22;11110;52.386;16.940;2023-12-07T05:17:33;16.10;39.50
21891;DHT22;11110;52.386;16.940;2023-12-07T05:20:03;16.10;39.50
21891;DHT22;11110;52.386;16.940;2023-12-07T05:22:34;16.10;39.50
21891;DHT22;11110;52.386;16.940;2023-12-07T05:25:03;16.10;39.50
21891;DHT22;11110;52.386;16.940;2023-12-07T05:27:32;16.10;39.60
21891;DHT22;11110;52.386;16.940;2023-12-07T05:30:01;16.10;39.60
21891;DHT22;11110;52.386;16.940;2023-12-07T05:32:30;16.10;39.50
21891;DHT22;11110;52.386;16.940;2023-12-07T05:34:58;16.20;39.50
21891;DHT22;11110;52.386;16.940;2023-12-07T05:37:27;16.20;39.40
21891;DHT22;11110;52.386;16.940;2023-12-07T05:39:57;16.20;39.40
21891;DHT22;11110;52.386;16.940;2023-12-07T05:42:26;16.20;39.30
21891;DHT22;11110;52.386;16.940;2023-12-07T05:44:54;16.20;39.20
21891;DHT22;11110;52.386;16.940;2023-12-07T05:47:23;16.30;39.20
21891;DHT22;11110;52.386;16.940;2023-12-07T05:49:52;16.30;39.20
21891;DHT22;11110;52.386;16.940;2023-12-07T05:52:21;16.30;39.20
21891;DHT22;11110;52.386;16.940;2023-12-07T05:54:50;16.30;39.20
21891;DHT22;11110;52.386;16.940;2023-12-07T05:57:20;16.30;39.20
21891;DHT22;11110;52.386;16.940;2023-12-07T05:59:48;16.30;39.20
21891;DHT22;11110;52.386;16.940;2023-12-07T06:02:17;16.30;39.80
21891;DHT22;11110;52.386;16.940;2023-12-07T06:04:45;16.30;39.20
21891;DHT22;11110;52.386;16.940;2023-12-07T06:07:14;16.30;39.20
21891;DHT22;11110;52.386;16.940;2023-12-07T06:09:43;16.30;39.90
21891;DHT22;11110;52.386;16.940;2023-12-07T06:12:11;16.40;39.20
21891;DHT22;11110;52.386;16.940;2023-12-07T06:14:41;16.30;39.20
21891;DHT22;11110;52.386;16.940;2023-12-07T06:17:10;16.40;39.30
21891;DHT22;11110;52.386;16.940;2023-12-07T06:19:38;16.40;39.30
21891;DHT22;11110;52.386;16.940;2023-12-07T06:22:07;16.40;39.20
21891;DHT22;11110;52.386;16.940;2023-12-07T06:24:35;16.40;39.20
21891;DHT22;11110;52.386;16.940;2023-12-07T06:27:04;16.40;39.20
21891;DHT22;11110;52.386;16.940;2023-12-07T06:29:33;16.40;39.20
21891;DHT22;11110;52.386;16.940;2023-12-07T06:32:04;16.40;39.20
21891;DHT22;11110;52.386;16.940;2023-12-07T06:34:32;16.40;39.30
21891;DHT22;11110;52.386;16.940;2023-12-07T06:37:01;16.30;39.40
21891;DHT22;11110;52.386;16.940;2023-12-07T06:39:30;16.40;39.70
21891;DHT22;11110;52.386;16.940;2023-12-07T06:41:58;16.40;39.60
21891;DHT22;11110;52.386;16.940;2023-12-07T06:44:27;16.40;39.50
21891;DHT22;11110;52.386;16.940;2023-12-07T06:46:56;16.40;40.10
21891;DHT22;11110;52.386;16.940;2023-12-07T06:49:26;16.40;39.40
21891;DHT22;11110;52.386;16.940;2023-12-07T06:52:13;16.40;39.40
21891;DHT22;11110;52.386;16.940;2023-12-07T06:54:41;16.40;39.40
21891;DHT22;11110;52.386;16.940;2023-12-07T06:57:10;16.40;39.40
21891;DHT22;11110;52.386;16.940;2023-12-07T06:59:39;16.40;39.40
21891;DHT22;11110;52.386;16.940;2023-12-07T07:02:08;16.40;39.30
21891;DHT22;11110;52.386;16.940;2023-12-07T07:04:38;16.40;39.30
21891;DHT22;11110;52.386;16.940;2023-12-07T07:07:07;16.50;39.40
21891;DHT22;11110;52.386;16.940;2023-12-07T07:09:35;16.50;39.50
21891;DHT22;11110;52.386;16.940;2023-12-07T07:12:04;16.50;39.50
21891;DHT22;11110;52.386;16.940;2023-12-07T07:14:33;16.50;39.40
21891;DHT22;11110;52.386;16.940;2023-12-07T07:17:02;16.50;39.40
21891;DHT22;11110;52.386;16.940;2023-12-07T07:19:31;16.50;39.40
21891;DHT22;11110;52.386;16.940;2023-12-07T07:22:01;16.50;39.40
21891;DHT22;11110;52.386;16.940;2023-12-07T07:24:30;16.50;39.30
21891;DHT22;11110;52.386;16.940;2023-12-07T07:26:58;16.50;39.30
21891;DHT22;11110;52.386;16.940;2023-12-07T07:29:27;16.50;39.30
21891;DHT22;11110;52.386;16.940;2023-12-07T07:31:56;16.50;39.30
21891;DHT22;11110;52.386;16.940;2023-12-07T07:34:25;16.50;39.30
21891;DHT22;11110;52.386;16.940;2023-12-07T07:36:53;16.40;39.30
21891;DHT22;11110;52.386;16.940;2023-12-07T07:39:23;16.50;39.40
21891;DHT22;11110;52.386;16.940;2023-12-07T07:41:52;16.50;39.40
21891;DHT22;11110;52.386;16.940;2023-12-07T07:44:20;16.40;39.40
21891;DHT22;11110;52.386;16.940;2023-12-07T07:46:49;16.40;39.40
21891;DHT22;11110;52.386;16.940;2023-12-07T07:49:17;16.40;39.40
21891;DHT22;11110;52.386;16.940;2023-12-07T07:51:45;16.40;39.30
21891;DHT22;11110;52.386;16.940;2023-12-07T07:54:14;16.50;39.20
21891;DHT22;11110;52.386;16.940;2023-12-07T07:56:44;16.50;39.20
21891;DHT22;11110;52.386;16.940;2023-12-07T07:59:12;16.50;39.30
21891;DHT22;11110;52.386;16.940;2023-12-07T08:01:41;16.50;39.30
21891;DHT22;11110;52.386;16.940;2023-12-07T08:04:09;16.50;39.30
21891;DHT22;11110;52.386;16.940;2023-12-07T08:06:39;16.50;40.00
21891;DHT22;11110;52.386;16.940;2023-12-07T08:09:08;16.50;39.30
21891;DHT22;11110;52.386;16.940;2023-12-07T08:11:37;16.60;39.40
21891;DHT22;11110;52.386;16.940;2023-12-07T08:14:07;16.60;39.30
21891;DHT22;11110;52.386;16.940;2023-12-07T08:16:35;16.60;39.30
21891;DHT22;11110;52.386;16.940;2023-12-07T08:19:04;16.60;39.40
21891;DHT22;11110;52.386;16.940;2023-12-07T08:21:32;16.60;39.40
21891;DHT22;11110;52.386;16.940;2023-12-07T08:24:01;16.50;39.40
21891;DHT22;11110;52.386;16.940;2023-12-07T08:26:30;16.50;39.40
21891;DHT22;11110;52.386;16.940;2023-12-07T08:28:58;16.50;39.50
21891;DHT22;11110;52.386;16.940;2023-12-07T08:31:28;16.50;39.40
21891;DHT22;11110;52.386;16.940;2023-12-07T08:33:56;16.60;39.40
21891;DHT22;11110;52.386;16.940;2023-12-07T08:36:25;16.60;39.30
21891;DHT22;11110;52.386;16.940;2023-12-07T08:38:54;16.60;39.20
21891;DHT22;11110;52.386;16.940;2023-12-07T08:41:22;16.60;39.10
21891;DHT22;11110;52.386;16.940;2023-12-07T08:43:50;16.70;39.20
21891;DHT22;11110;52.386;16.940;2023-12-07T08:46:19;16.70;39.20
21891;DHT22;11110;52.386;16.940;2023-12-07T08:48:49;16.70;39.30
21891;DHT22;11110;52.386;16.940;2023-12-07T08:51:18;16.70;39.20
21891;DHT22;11110;52.386;16.940;2023-12-07T08:53:46;16.70;39.20
21891;DHT22;11110;52.386;16.940;2023-12-07T08:56:19;16.70;39.20
21891;DHT22;11110;52.386;16.940;2023-12-07T08:58:48;16.70;39.20
21891;DHT22;11110;52.386;16.940;2023-12-07T09:01:17;16.70;39.20
21891;DHT22;11110;52.386;16.940;2023-12-07T09:03:59;16.80;39.20
21891;DHT22;11110;52.386;16.940;2023-12-07T09:06:28;16.80;39.30
21891;DHT22;11110;52.386;16.940;2023-12-07T09:08:57;16.80;39.30
21891;DHT22;11110;52.386;16.940;2023-12-07T09:11:27;16.80;39.30
21891;DHT22;11110;52.386;16.940;2023-12-07T09:13:56;16.90;39.40
21891;DHT22;11110;52.386;16.940;2023-12-07T09:16:25;16.90;39.40
21891;DHT22;11110;52.386;16.940;2023-12-07T09:18:54;16.90;39.30
21891;DHT22;11110;52.386;16.940;2023-12-07T09:21:24;17.00;39.40
21891;DHT22;11110;52.386;16.940;2023-12-07T09:23:53;17.00;39.30
21891;DHT22;11110;52.386;16.940;2023-12-07T09:26:21;17.00;39.10
21891;DHT22;11110;52.386;16.940;2023-12-07T09:28:50;17.00;39.10
21891;DHT22;11110;52.386;16.940;2023-12-07T09:31:18;17.00;39.00
21891;DHT22;11110;52.386;16.940;2023-12-07T09:33:48;17.00;38.90
21891;DHT22;11110;52.386;16.940;2023-12-07T09:36:17;17.10;38.90
21891;DHT22;11110;52.386;16.940;2023-12-07T09:38:49;17.10;38.90
21891;DHT22;11110;52.386;16.940;2023-12-07T09:41:20;17.10;38.90
21891;DHT22;11110;52.386;16.940;2023-12-07T09:43:48;17.10;39.00
21891;DHT22;11110;52.386;16.940;2023-12-07T09:46:18;17.10;38.90
21891;DHT22;11110;52.386;16.940;2023-12-07T09:48:49;17.20;38.90
21891;DHT22;11110;52.386;16.940;2023-12-07T09:51:18;17.20;38.80
21891;DHT22;11110;52.386;16.940;2023-12-07T09:53:49;17.20;38.90
21891;DHT22;11110;52.386;16.940;2023-12-07T09:56:21;17.20;38.90
21891;DHT22;11110;52.386;16.940;2023-12-07T09:58:49;17.20;39.00
21891;DHT22;11110;52.386;16.940;2023-12-07T10:01:18;17.20;39.00
21891;DHT22;11110;52.386;16.940;2023-12-07T10:03:47;17.20;38.90
21891;DHT22;11110;52.386;16.940;2023-12-07T10:06:15;17.20;38.90
21891;DHT22;11110;52.386;16.940;2023-12-07T10:08:44;17.20;38.80
21891;DHT22;11110;52.386;16.940;2023-12-07T10:11:16;17.30;38.80
21891;DHT22;11110;52.386;16.940;2023-12-07T10:13:45;17.30;38.70
21891;DHT22;11110;52.386;16.940;2023-12-07T10:16:15;17.30;38.70
21891;DHT22;11110;52.386;16.940;2023-12-07T10:18:46;17.30;38.60
21891;DHT22;11110;52.386;16.940;2023-12-07T10:21:16;17.30;38.60
21891;DHT22;11110;52.386;16.940;2023-12-07T10:23:59;17.30;38.50
21891;DHT22;11110;52.386;16.940;2023-12-07T10:26:29;17.40;38.50
21891;DHT22;11110;52.386;16.940;2023-12-07T10:28:59;17.40;38.60
21891;DHT22;11110;52.386;16.940;2023-12-07T10:31:27;17.30;38.60
21891;DHT22;11110;52.386;16.940;2023-12-07T10:33:59;17.40;38.60
21891;DHT22;11110;52.386;16.940;2023-12-07T10:36:28;17.40;38.40
21891;DHT22;11110;52.386;16.940;2023-12-07T10:38:57;17.40;38.30
21891;DHT22;11110;52.386;16.940;2023-12-07T10:41:26;17.40;38.30
21891;DHT22;11110;52.386;16.940;2023-12-07T10:43:59;17.50;38.40
21891;DHT22;11110;52.386;16.940;2023-12-07T10:46:29;17.50;38.30
21891;DHT22;11110;52.386;16.940;2023-12-07T10:49:04;17.50;38.10
21891;DHT22;11110;52.386;16.940;2023-12-07T10:51:51;17.50;38.00
21891;DHT22;11110;52.386;16.940;2023-12-07T10:54:29;17.50;38.00
21891;DHT22;11110;52.386;16.940;2023-12-07T10:56:59;17.50;38.00
21891;DHT22;11110;52.386;16.940;2023-12-07T10:59:32;17.50;38.10
21891;DHT22;11110;52.386;16.940;2023-12-07T11:02:03;17.50;38.10
21891;DHT22;11110;52.386;16.940;2023-12-07T11:04:35;17.50;38.20
21891;DHT22;11110;52.386;16.940;2023-12-07T11:07:09;17.50;38.20
21891;DHT22;11110;52.386;16.940;2023-12-07T11:09:41;17.50;38.10
21891;DHT22;11110;52.386;16.940;2023-12-07T11:12:17;17.50;38.10
21891;DHT22;11110;52.386;16.940;2023-12-07T11:14:48;17.50;38.00
21891;DHT22;11110;52.386;16.940;2023-12-07T11:17:17;17.50;38.00
21891;DHT22;11110;52.386;16.940;2023-12-07T11:19:48;17.50;38.00
21891;DHT22;11110;52.386;16.940;2023-12-07T11:22:17;17.60;38.00
21891;DHT22;11110;52.386;16.940;2023-12-07T11:24:56;17.60;38.00
21891;DHT22;11110;52.386;16.940;2023-12-07T11:27:32;17.60;38.00
21891;DHT22;11110;52.386;16.940;2023-12-07T11:30:02;17.60;38.00
21891;DHT22;11110;52.386;16.940;2023-12-07T11:32:32;17.60;38.00
21891;DHT22;11110;52.386;16.940;2023-12-07T11:35:02;17.60;38.00
21891;DHT22;11110;52.386;16.940;2023-12-07T11:38:01;17.60;37.90
21891;DHT22;11110;52.386;16.940;2023-12-07T11:40:30;17.60;37.90
21891;DHT22;11110;52.386;16.940;2023-12-07T11:43:00;17.60;38.00
21891;DHT22;11110;52.386;16.940;2023-12-07T11:45:40;17.60;38.00
21891;DHT22;11110;52.386;16.940;2023-12-07T11:48:10;17.60;37.80
21891;DHT22;11110;52.386;16.940;2023-12-07T11:50:54;17.60;37.90
21891;DHT22;11110;52.386;16.940;2023-12-07T11:53:24;17.60;37.90
21891;DHT22;11110;52.386;16.940;2023-12-07T11:55:53;17.60;37.90
21891;DHT22;11110;52.386;16.940;2023-12-07T11:58:22;17.70;37.90
21891;DHT22;11110;52.386;16.940;2023-12-07T12:00:53;17.60;37.90
21891;DHT22;11110;52.386;16.940;2023-12-07T12:03:24;17.60;38.00
21891;DHT22;11110;52.386;16.940;2023-12-07T12:05:53;17.70;38.70
21891;DHT22;11110;52.386;16.940;2023-12-07T12:08:22;17.70;38.00
21891;DHT22;11110;52.386;16.940;2023-12-07T12:10:51;17.70;38.00
21891;DHT22;11110;52.386;16.940;2023-12-07T12:13:27;17.70;38.00
21891;DHT22;11110;52.386;16.940;2023-12-07T12:15:58;17.70;38.00
21891;DHT22;11110;52.386;16.940;2023-12-07T12:18:32;17.70;38.00
21891;DHT22;11110;52.386;16.940;2023-12-07T12:21:01;17.70;37.90
21891;DHT22;11110;52.386;16.940;2023-12-07T12:23:30;17.70;37.80
21891;DHT22;11110;52.386;16.940;2023-12-07T12:25:58;17.80;37.80
21891;DHT22;11110;52.386;16.940;2023-12-07T12:28:28;17.80;38.50
21891;DHT22;11110;52.386;16.940;2023-12-07T12:31:01;17.70;37.80
21891;DHT22;11110;52.386;16.940;2023-12-07T12:33:30;17.70;37.80
21891;DHT22;11110;52.386;16.940;2023-12-07T12:36:03;17.70;37.90
21891;DHT22;11110;52.386;16.940;2023-12-07T12:38:32;17.70;37.80
21891;DHT22;11110;52.386;16.940;2023-12-07T12:41:10;17.70;37.80
21891;DHT22;11110;52.386;16.940;2023-12-07T12:43:39;17.70;37.70
21891;DHT22;11110;52.386;16.940;2023-12-07T12:46:09;17.70;37.80
21891;DHT22;11110;52.386;16.940;2023-12-07T12:48:55;17.70;37.70
21891;DHT22;11110;52.386;16.940;2023-12-07T12:51:25;17.70;37.70
21891;DHT22;11110;52.386;16.940;2023-12-07T12:53:55;17.70;37.80
21891;DHT22;11110;52.386;16.940;2023-12-07T12:56:27;17.70;37.90
21891;DHT22;11110;52.386;16.940;2023-12-07T12:58:56;17.70;37.90
21891;DHT22;11110;52.386;16.940;2023-12-07T13:01:33;17.70;37.90
21891;DHT22;11110;52.386;16.940;2023-12-07T13:04:02;17.70;37.90
21891;DHT22;11110;52.386;16.940;2023-12-07T13:06:31;17.70;38.00
21891;DHT22;11110;52.386;16.940;2023-12-07T13:08:59;17.70;38.00
21891;DHT22;11110;52.386;16.940;2023-12-07T13:11:27;17.70;37.90
21891;DHT22;11110;52.386;16.940;2023-12-07T13:13:56;17.70;37.90
21891;DHT22;11110;52.386;16.940;2023-12-07T13:16:25;17.70;37.90
21891;DHT22;11110;52.386;16.940;2023-12-07T13:18:55;17.70;37.90
21891;DHT22;11110;52.386;16.940;2023-12-07T13:21:24;17.70;37.90
21891;DHT22;11110;52.386;16.940;2023-12-07T13:23:53;17.70;37.90
21891;DHT22;11110;52.386;16.940;2023-12-07T13:26:21;17.80;37.90
21891;DHT22;11110;52.386;16.940;2023-12-07T13:28:50;17.80;38.00
21891;DHT22;11110;52.386;16.940;2023-12-07T13:31:20;17.80;38.00
21891;DHT22;11110;52.386;16.940;2023-12-07T13:33:49;17.80;38.10
21891;DHT22;11110;52.386;16.940;2023-12-07T13:36:25;17.80;38.00
21891;DHT22;11110;52.386;16.940;2023-12-07T13:38:56;17.80;38.00
21891;DHT22;11110;52.386;16.940;2023-12-07T13:41:24;17.80;38.00
21891;DHT22;11110;52.386;16.940;2023-12-07T13:43:53;17.80;38.10
21891;DHT22;11110;52.386;16.940;2023-12-07T13:46:21;17.80;38.20
21891;DHT22;11110;52.386;16.940;2023-12-07T13:48:51;17.80;38.20
21891;DHT22;11110;52.386;16.940;2023-12-07T13:51:19;17.80;38.20
21891;DHT22;11110;52.386;16.940;2023-12-07T13:53:50;17.80;38.20
21891;DHT22;11110;52.386;16.940;2023-12-07T13:56:26;17.80;38.20
21891;DHT22;11110;52.386;16.940;2023-12-07T13:58:55;17.80;38.30
21891;DHT22;11110;52.386;16.940;2023-12-07T14:01:23;17.80;38.20
21891;DHT22;11110;52.386;16.940;2023-12-07T14:03:53;17.80;38.20
21891;DHT22;11110;52.386;16.940;2023-12-07T14:06:22;17.80;38.20
21891;DHT22;11110;52.386;16.940;2023-12-07T14:08:57;17.80;38.30
21891;DHT22;11110;52.386;16.940;2023-12-07T14:11:26;17.80;38.30
21891;DHT22;11110;52.386;16.940;2023-12-07T14:13:55;17.80;38.30
21891;DHT22;11110;52.386;16.940;2023-12-07T14:16:23;17.80;38.20
21891;DHT22;11110;52.386;16.940;2023-12-07T14:19:12;17.80;38.20
21891;DHT22;11110;52.386;16.940;2023-12-07T14:21:46;17.70;38.20
21891;DHT22;11110;52.386;16.940;2023-12-07T14:24:26;17.70;38.20
21891;DHT22;11110;52.386;16.940;2023-12-07T14:26:56;17.70;38.20
21891;DHT22;11110;52.386;16.940;2023-12-07T14:29:24;17.70;38.10
21891;DHT22;11110;52.386;16.940;2023-12-07T14:31:54;17.70;38.20
21891;DHT22;11110;52.386;16.940;2023-12-07T14:34:23;17.70;38.80
21891;DHT22;11110;52.386;16.940;2023-12-07T14:37:02;17.80;38.20
21891;DHT22;11110;52.386;16.940;2023-12-07T14:39:35;17.70;38.10
21891;DHT22;11110;52.386;16.940;2023-12-07T14:42:04;17.70;38.10
21891;DHT22;11110;52.386;16.940;2023-12-07T14:44:34;17.70;38.20
21891;DHT22;11110;52.386;16.940;2023-12-07T14:47:03;17.70;38.30
21891;DHT22;11110;52.386;16.940;2023-12-07T14:49:31;17.70;38.30
21891;DHT22;11110;52.386;16.940;2023-12-07T14:52:00;17.70;38.30
21891;DHT22;11110;52.386;16.940;2023-12-07T14:54:29;17.70;38.30
21891;DHT22;11110;52.386;16.940;2023-12-07T14:57:00;17.70;38.20
21891;DHT22;11110;52.386;16.940;2023-12-07T14:59:30;17.70;38.20
21891;DHT22;11110;52.386;16.940;2023-12-07T15:01:59;17.60;38.80
21891;DHT22;11110;52.386;16.940;2023-12-07T15:04:28;17.70;38.30
21891;DHT22;11110;52.386;16.940;2023-12-07T15:07:01;17.70;38.40
21891;DHT22;11110;52.386;16.940;2023-12-07T15:09:32;17.70;38.50
21891;DHT22;11110;52.386;16.940;2023-12-07T15:12:04;17.60;38.40
21891;DHT22;11110;52.386;16.940;2023-12-07T15:14:32;17.70;38.40
21891;DHT22;11110;52.386;16.940;2023-12-07T15:17:05;17.70;38.40
21891;DHT22;11110;52.386;16.940;2023-12-07T15:19:36;17.70;38.50
21891;DHT22;11110;52.386;16.940;2023-12-07T15:22:07;17.60;38.50
21891;DHT22;11110;52.386;16.940;2023-12-07T15:24:36;17.60;38.50
21891;DHT22;11110;52.386;16.940;2023-12-07T15:27:08;17.70;38.60
21891;DHT22;11110;52.386;16.940;2023-12-07T15:29:38;17.70;38.60
21891;DHT22;11110;52.386;16.940;2023-12-07T15:32:08;17.60;38.70